Southwest Washington Regional Airport Kelso US
ICAO: KKLS
IATA: KLS
Category: Medium
Scheduled Services: No

Elevation: 20 ft
TransAlt. 18000 ft.

Airport Communications:
AWOS 3:135.075
SEATTLE CNTR:124.2
SEATTLE RDO:122.25
CTAF/UNICOM:122.8

KKLS Zoom In..

Runways:

(A) RW 12 length 4391 ft width 100 ft
---- / hdg 123

(B) RW 30 length 4391 ft width 100 ft
---- / hdg 303

Location; KKLS
Day. 21 / Time. 05.56 Zulu
* Altimeter: 30.15
* Temperature: 16° c. 60.8°f.
* Wind from: 320° Speed 03 kn.
Dewpoint: 10° c.
Visibility: 10 Statute Miles.
Clouds: Clear (automated report).

KKLS 210556Z AUTO 32003KT 10SM CLR 16/10 A3015 RMK AO2 SLP215 T01560100 10233 20156 51014


Wind From 320°
Speed 03 kn.

 
 
jpsmedia.com for Web Design worldairports.se 2018   terms of use